Airfield :
LOGIN :

Register | Disclaimer

   EN    FR    IT 

 










Legend :    VFR   Marginal VFR   IFR   Intensive IFR   Very Intensive IFR
Visi :
Ceiling :
>= 8 km
>= 3000ft
5 to 8 km
1000 to 3000 ft
1500m to 5 km
500 to 1000 ft
800 to 1500m
200 to 500 ft
< 800m
< 200 ft
Symbols :   Thunderstorms  Fog  Heavy snow  Heavy precipitations  Wind > 20 kt
SIGMETs :     Misc.  Thunderstorms  Icing  Turbulence  Mountain Waves  Volcanic Ashes






- Airport Elevation : 1017 ft


LFSL - Brive Souillac

CURRENT METAR :
  • 151200Z AUTO 17008KT 140V230 9999 BKN041 OVC049 15/10 Q1010 NOSIG

EXPIRED METARs :
  • 151130Z AUTO 18007KT 130V220 9999 FEW049 SCT110 14/09 Q1010 NOSIG
  • 151100Z AUTO 18009KT 140V200 CAVOK 13/09 Q1010 NOSIG
  • 151030Z AUTO 16006KT 130V200 CAVOK 12/09 Q1011 NOSIG
  • 151000Z AUTO 16006KT 120V180 CAVOK 12/09 Q1011 NOSIG
  • 150930Z AUTO 16006KT 130V190 9999 FEW042 BKN084 11/09 Q1011 NOSIG

TAF TAF LFSL
Valid from the 15 at 12:00 until the 15 at 21:00 UTC


151100Z 1512/1521 17006KT CAVOK



MET'MAP, your aeronautical weather chart ! - Copyright ORBIFLY December 2007 - Disclaimer

ORBIFLY MET'MAP TEAM :

Programming & Development : Alexandra Zaïnal
Concept & original design : Baudouin d'Aumeries
Assistance for programming : Marc-Olivier Méhu
Technical & hardware support : Manuel Goepfert

Contact : metmap@orbifly.com




SOURCES & CREDITS :

   NOAA